Aérodrome :
LOGIN :

S'inscrire | Disclaimer

   EN    FR    IT 

 










Légende :    VFR   VFR Marginal   IFR   IFR Intensif   IFR Très Intensif
Visi : 
Plafond : 
>= 8 km
>= 3000ft
5 à 8 km
1000 à 3000 ft
1500m à 5 km
500 à 1000 ft
800 à 1500m
200 à 500 ft
< 800m
< 200 ft
Symboles :   Orages  Brouillard  Fortes neiges  Fortes précipitations  Vent > 20 kt
SIGMETs :   Divers  Orages  Givrage  Turbulence  Onde Orograph.  Cendres Volcan.







- Altitude de l'aérodrome : 52 ft
- Code IATA : IOM
- Voir les cartes d'approche


EGNS - Isle of Man

DERNIER METAR :
  • 221750Z 24010KT 9999 FEW015 BKN037 08/05 Q1012 NOSIG

METARs EXPIRÉS :
  • 221720Z 24012KT 9999 FEW015 BKN036 08/05 Q1012 NOSIG
  • 221650Z 25011KT 220V280 9999 FEW015 BKN038 08/05 Q1012 NOSIG
  • 221620Z 25013KT 210V270 9999 FEW014 BKN038 08/05 Q1012 NOSIG
  • 221550Z 25013KT 9999 FEW014 BKN035 08/05 Q1011 NOSIG
  • 221520Z 25012KT 210V280 9999 FEW014 BKN040 08/05 Q1011 NOSIG

TAF TAF EGNS
Valide du 22 à 18h jusqu'au 22 à 22h UTC


221700Z 2218/2222 26012KT 9999 FEW014 BKN035
BECMG 2218/2221 20015KT
Pas de NOTAMs connus pour ce terrain.



MET'MAP, la Météo Aéronautique d'un coup d'oeil ! - Copyright ORBIFLY Décembre 2007 - Disclaimer

ORBIFLY MET'MAP TEAM :

Programmation & Développement : Alexandra Zaïnal
Conception & Développement : Baudouin d'Aumeries
Co-Programmation & Développement : Marc-Olivier Méhu
Soutien technique & logistique : Manuel Goepfert

Contact : metmap@orbifly.com




SOURCES & CREDITS :

   NOAA